Terminal Aerodrome Forecast
Issued by NWS

Home | Current Version | Previous Version | Text Only | Print | Product List | Glossary On
Versions: 1 2 3 4 5 6 7 8 9 10 11 12 13 14 15 16 17 18
783
FTPA31 PHFO 281135
TAFHKO
TAF
PHKO 281135Z 2812/2912 35010KT P6SM SCT025 SCT050
     FM281600 VRB03KT P6SM SCT025
     FM282000 21010KT P6SM SCT050
     FM290400 18010KT P6SM SCT025 BKN050
     FM291000 15005KT P6SM SCT025 BKN050=

USA.gov is the U.S. government's official web portal to all federal, state and local government web resources and services.